OMD210 KDFW-KMZJ
Flight info
| Callsign | OMD210 |
|---|---|
| Flight time | 2h 3m |
| Altitude | 38000 |
| Route | WSTEX2 CIKAN EWM TUS |
| Aircraft | A321/M-SDE3FGHIRWY/LB1 |
Departure
| Time | 2026-05-08 12:32 |
|---|---|
| Airport | Dallas Fort Worth International Airport (KDFW) |
Arrival
| Time | 2026-05-08 14:35 |
|---|---|
| Airport | Pinal Airpark (KMZJ) |
| Time | Latitude | Longitude | Altitude | Speed | Heading |
|---|---|---|---|---|---|
| 2026-05-08 12:20 | 32.88781 | -97.03641 | 598 ft | 0 kts | 322° |
| 2026-05-08 12:23 | 32.88767 | -97.03626 | 598 ft | 4 kts | 301° |
| 2026-05-08 12:23 | 32.88761 | -97.03598 | 598 ft | 4 kts | 250° |
| 2026-05-08 12:24 | 32.88770 | -97.03581 | 598 ft | 0 kts | 214° |
| 2026-05-08 12:25 | 32.88770 | -97.03582 | 598 ft | 1 kts | 214° |
| 2026-05-08 12:25 | 32.88734 | -97.03591 | 598 ft | 9 kts | 178° |
| 2026-05-08 12:26 | 32.88652 | -97.03565 | 598 ft | 14 kts | 179° |
| 2026-05-08 12:26 | 32.88601 | -97.03527 | 598 ft | 7 kts | 75° |
| 2026-05-08 12:26 | 32.88603 | -97.03440 | 598 ft | 13 kts | 90° |
| 2026-05-08 12:26 | 32.88602 | -97.03383 | 598 ft | 1 kts | 91° |
| 2026-05-08 12:27 | 32.88602 | -97.03373 | 598 ft | 0 kts | 91° |
| 2026-05-08 12:27 | 32.88601 | -97.03337 | 598 ft | 9 kts | 90° |
| 2026-05-08 12:27 | 32.88603 | -97.03234 | 598 ft | 14 kts | 79° |
| 2026-05-08 12:27 | 32.88694 | -97.03200 | 598 ft | 16 kts | 2° |
| 2026-05-08 12:28 | 32.88817 | -97.03199 | 598 ft | 19 kts | 360° |
| 2026-05-08 12:28 | 32.88960 | -97.03198 | 598 ft | 22 kts | 0° |
| 2026-05-08 12:28 | 32.89124 | -97.03198 | 598 ft | 25 kts | 359° |
| 2026-05-08 12:28 | 32.89306 | -97.03197 | 598 ft | 27 kts | 0° |
| 2026-05-08 12:29 | 32.89505 | -97.03196 | 598 ft | 30 kts | 0° |
| 2026-05-08 12:29 | 32.89718 | -97.03194 | 598 ft | 32 kts | 0° |
| 2026-05-08 12:29 | 32.89945 | -97.03194 | 598 ft | 33 kts | 0° |
| 2026-05-08 12:29 | 32.90184 | -97.03191 | 598 ft | 35 kts | 0° |
| 2026-05-08 12:30 | 32.90430 | -97.03190 | 598 ft | 36 kts | 0° |
| 2026-05-08 12:30 | 32.90687 | -97.03189 | 598 ft | 37 kts | 0° |
| 2026-05-08 12:30 | 32.90894 | -97.03180 | 598 ft | 15 kts | 28° |
| 2026-05-08 12:30 | 32.90902 | -97.03111 | 599 ft | 9 kts | 89° |
| 2026-05-08 12:31 | 32.90897 | -97.03019 | 599 ft | 11 kts | 121° |
| 2026-05-08 12:31 | 32.90805 | -97.02996 | 599 ft | 30 kts | 179° |
| 2026-05-08 12:31 | 32.90253 | -97.02996 | 599 ft | 124 kts | 180° |
| 2026-05-08 12:31 | 32.89213 | -97.03003 | 1014 ft | 156 kts | 178° |
| 2026-05-08 12:32 | 32.88144 | -97.03041 | 2016 ft | 156 kts | 182° |
| 2026-05-08 12:32 | 32.87010 | -97.03177 | 2591 ft | 172 kts | 184° |
| 2026-05-08 12:32 | 32.85736 | -97.03350 | 2970 ft | 194 kts | 186° |
| 2026-05-08 12:32 | 32.84311 | -97.03548 | 3258 ft | 219 kts | 186° |
| 2026-05-08 12:33 | 32.82707 | -97.03774 | 3841 ft | 240 kts | 187° |
| 2026-05-08 12:33 | 32.81041 | -97.04008 | 4862 ft | 247 kts | 189° |
| 2026-05-08 12:33 | 32.79307 | -97.04252 | 5883 ft | 254 kts | 190° |
| 2026-05-08 12:33 | 32.77523 | -97.04503 | 6849 ft | 261 kts | 191° |
| 2026-05-08 12:34 | 32.75706 | -97.04755 | 7850 ft | 265 kts | 191° |
| 2026-05-08 12:34 | 32.73868 | -97.05042 | 8881 ft | 266 kts | 197° |
| 2026-05-08 12:34 | 32.72190 | -97.05855 | 9868 ft | 265 kts | 216° |
| 2026-05-08 12:34 | 32.70828 | -97.07329 | 10706 ft | 271 kts | 234° |
| 2026-05-08 12:35 | 32.69941 | -97.09388 | 11105 ft | 293 kts | 254° |
| 2026-05-08 12:35 | 32.69440 | -97.11833 | 11523 ft | 315 kts | 257° |
| 2026-05-08 12:35 | 32.69066 | -97.14437 | 12293 ft | 323 kts | 267° |
| 2026-05-08 12:35 | 32.69031 | -97.17133 | 13225 ft | 326 kts | 269° |
| 2026-05-08 12:36 | 32.68994 | -97.19838 | 14143 ft | 329 kts | 269° |
| 2026-05-08 12:36 | 32.68946 | -97.22538 | 14977 ft | 332 kts | 268° |
| 2026-05-08 12:36 | 32.68890 | -97.25294 | 15821 ft | 336 kts | 268° |
| 2026-05-08 12:36 | 32.68829 | -97.28080 | 16653 ft | 339 kts | 267° |
| 2026-05-08 12:37 | 32.68766 | -97.30901 | 17494 ft | 343 kts | 267° |
| 2026-05-08 12:37 | 32.68701 | -97.33761 | 18306 ft | 347 kts | 267° |
| 2026-05-08 12:37 | 32.68638 | -97.36643 | 19038 ft | 350 kts | 267° |
| 2026-05-08 12:37 | 32.68577 | -97.39509 | 19822 ft | 351 kts | 267° |
| 2026-05-08 12:38 | 32.68515 | -97.42412 | 20635 ft | 353 kts | 267° |
| 2026-05-08 12:38 | 32.68453 | -97.45336 | 21460 ft | 354 kts | 267° |
| 2026-05-08 12:38 | 32.68389 | -97.48262 | 22279 ft | 355 kts | 267° |
| 2026-05-08 12:38 | 32.68323 | -97.51196 | 23049 ft | 356 kts | 266° |
| 2026-05-08 12:39 | 32.68257 | -97.54122 | 23764 ft | 357 kts | 266° |
| 2026-05-08 12:39 | 32.68187 | -97.57090 | 24381 ft | 359 kts | 266° |
| 2026-05-08 12:39 | 32.68116 | -97.60060 | 24995 ft | 361 kts | 266° |
| 2026-05-08 12:39 | 32.68045 | -97.63052 | 25605 ft | 362 kts | 265° |
| 2026-05-08 12:40 | 32.67977 | -97.66026 | 26197 ft | 364 kts | 265° |
| 2026-05-08 12:40 | 32.67906 | -97.69054 | 26778 ft | 366 kts | 265° |
| 2026-05-08 12:40 | 32.67834 | -97.72050 | 27341 ft | 367 kts | 265° |
| 2026-05-08 12:40 | 32.67732 | -97.75105 | 27901 ft | 369 kts | 263° |
| 2026-05-08 12:41 | 32.67540 | -97.78151 | 28468 ft | 370 kts | 261° |
| 2026-05-08 12:41 | 32.67294 | -97.81178 | 29009 ft | 372 kts | 261° |
| 2026-05-08 12:41 | 32.67022 | -97.84252 | 29542 ft | 373 kts | 260° |
| 2026-05-08 12:41 | 32.66751 | -97.87321 | 30061 ft | 376 kts | 260° |
| 2026-05-08 12:42 | 32.66486 | -97.90416 | 30512 ft | 378 kts | 260° |
| 2026-05-08 12:42 | 32.66233 | -97.93485 | 30973 ft | 379 kts | 260° |
| 2026-05-08 12:42 | 32.65984 | -97.96588 | 31578 ft | 376 kts | 261° |
| 2026-05-08 12:42 | 32.65743 | -97.99666 | 32241 ft | 373 kts | 260° |
| 2026-05-08 12:43 | 32.65505 | -98.02722 | 32902 ft | 370 kts | 260° |
| 2026-05-08 12:43 | 32.65268 | -98.05762 | 33565 ft | 366 kts | 260° |
| 2026-05-08 12:43 | 32.65037 | -98.08726 | 34208 ft | 363 kts | 260° |
| 2026-05-08 12:43 | 32.64803 | -98.11712 | 34772 ft | 360 kts | 260° |
| 2026-05-08 12:44 | 32.64569 | -98.14674 | 35301 ft | 358 kts | 260° |
| 2026-05-08 12:44 | 32.64332 | -98.17611 | 35820 ft | 357 kts | 260° |
| 2026-05-08 12:44 | 32.64096 | -98.20501 | 36317 ft | 355 kts | 260° |
| 2026-05-08 12:44 | 32.63859 | -98.23415 | 36786 ft | 354 kts | 260° |
| 2026-05-08 12:45 | 32.63623 | -98.26335 | 37269 ft | 353 kts | 260° |
| 2026-05-08 12:45 | 32.63389 | -98.29244 | 37737 ft | 352 kts | 260° |
| 2026-05-08 12:45 | 32.63156 | -98.32110 | 37972 ft | 353 kts | 260° |
| 2026-05-08 12:45 | 32.62921 | -98.35000 | 38010 ft | 351 kts | 260° |
| 2026-05-08 12:46 | 32.62449 | -98.40764 | 38001 ft | 351 kts | 260° |
| 2026-05-08 12:46 | 32.61969 | -98.46527 | 37998 ft | 351 kts | 260° |
| 2026-05-08 12:47 | 32.61496 | -98.52277 | 38000 ft | 351 kts | 260° |
| 2026-05-08 12:47 | 32.61019 | -98.58033 | 38011 ft | 351 kts | 260° |
| 2026-05-08 12:48 | 32.60538 | -98.63795 | 38031 ft | 351 kts | 260° |
| 2026-05-08 12:48 | 32.60057 | -98.69524 | 38021 ft | 351 kts | 260° |
| 2026-05-08 12:49 | 32.59565 | -98.75309 | 38031 ft | 352 kts | 260° |
| 2026-05-08 12:49 | 32.59073 | -98.81099 | 38037 ft | 353 kts | 260° |
| 2026-05-08 12:50 | 32.58580 | -98.86879 | 38036 ft | 353 kts | 260° |
| 2026-05-08 12:50 | 32.58083 | -98.92645 | 38032 ft | 353 kts | 260° |
| 2026-05-08 12:51 | 32.57335 | -99.01308 | 38024 ft | 353 kts | 260° |
| 2026-05-08 12:52 | 32.56835 | -99.07112 | 38002 ft | 353 kts | 260° |
| 2026-05-08 12:52 | 32.56070 | -99.15812 | 37999 ft | 355 kts | 260° |
| 2026-05-08 12:53 | 32.55553 | -99.21640 | 37994 ft | 356 kts | 260° |
| 2026-05-08 12:53 | 32.55031 | -99.27452 | 37995 ft | 356 kts | 260° |
| 2026-05-08 12:54 | 32.54505 | -99.33300 | 37993 ft | 356 kts | 261° |
| 2026-05-08 12:54 | 32.54103 | -99.39175 | 38011 ft | 358 kts | 262° |
| 2026-05-08 12:55 | 32.53796 | -99.45026 | 38023 ft | 358 kts | 262° |
| 2026-05-08 12:55 | 32.53467 | -99.50918 | 38020 ft | 359 kts | 262° |
| 2026-05-08 12:56 | 32.53112 | -99.56853 | 38025 ft | 360 kts | 262° |
| 2026-05-08 12:56 | 32.52743 | -99.62768 | 38038 ft | 361 kts | 262° |
| 2026-05-08 12:57 | 32.52376 | -99.68705 | 38042 ft | 362 kts | 262° |
| 2026-05-08 12:57 | 32.52010 | -99.74633 | 38042 ft | 362 kts | 262° |
| 2026-05-08 12:58 | 32.51641 | -99.80608 | 38025 ft | 362 kts | 262° |
| 2026-05-08 12:58 | 32.51260 | -99.86563 | 38025 ft | 363 kts | 262° |
| 2026-05-08 12:59 | 32.50880 | -99.92559 | 38004 ft | 365 kts | 262° |
| 2026-05-08 12:59 | 32.50496 | -99.98540 | 37996 ft | 367 kts | 262° |
| 2026-05-08 13:00 | 32.50104 | -100.04577 | 37988 ft | 368 kts | 262° |
| 2026-05-08 13:00 | 32.49783 | -100.09618 | 37988 ft | 369 kts | 262° |
| 2026-05-08 13:01 | 32.49388 | -100.15683 | 37984 ft | 369 kts | 262° |
| 2026-05-08 13:01 | 32.48985 | -100.21748 | 37986 ft | 370 kts | 262° |
| 2026-05-08 13:02 | 32.48582 | -100.27812 | 37956 ft | 372 kts | 262° |
| 2026-05-08 13:02 | 32.48181 | -100.33933 | 38058 ft | 373 kts | 262° |
| 2026-05-08 13:03 | 32.47778 | -100.40074 | 38067 ft | 374 kts | 262° |
| 2026-05-08 13:03 | 32.47370 | -100.46237 | 38070 ft | 374 kts | 262° |
| 2026-05-08 13:04 | 32.46964 | -100.52346 | 38074 ft | 375 kts | 262° |
| 2026-05-08 13:04 | 32.46548 | -100.58506 | 38072 ft | 375 kts | 262° |
| 2026-05-08 13:05 | 32.46135 | -100.64666 | 38037 ft | 376 kts | 262° |
| 2026-05-08 13:05 | 32.45719 | -100.70824 | 38015 ft | 377 kts | 262° |
| 2026-05-08 13:06 | 32.45295 | -100.77021 | 37992 ft | 377 kts | 262° |
| 2026-05-08 13:06 | 32.44862 | -100.83238 | 37986 ft | 378 kts | 262° |
| 2026-05-08 13:07 | 32.44426 | -100.89405 | 37987 ft | 378 kts | 262° |
| 2026-05-08 13:07 | 32.43990 | -100.95625 | 37990 ft | 378 kts | 262° |
| 2026-05-08 13:08 | 32.43551 | -101.01846 | 37996 ft | 378 kts | 262° |
| 2026-05-08 13:08 | 32.43113 | -101.08014 | 37983 ft | 378 kts | 262° |
| 2026-05-08 13:09 | 32.42667 | -101.14227 | 37970 ft | 378 kts | 262° |
| 2026-05-08 13:09 | 32.42212 | -101.20440 | 37957 ft | 378 kts | 262° |
| 2026-05-08 13:10 | 32.41761 | -101.26618 | 37954 ft | 379 kts | 262° |
| 2026-05-08 13:10 | 32.41310 | -101.32835 | 37954 ft | 379 kts | 262° |
| 2026-05-08 13:11 | 32.40856 | -101.39083 | 37952 ft | 380 kts | 262° |
| 2026-05-08 13:11 | 32.40396 | -101.45295 | 37946 ft | 381 kts | 262° |
| 2026-05-08 13:12 | 32.39926 | -101.51565 | 37940 ft | 382 kts | 262° |
| 2026-05-08 13:12 | 32.39457 | -101.57838 | 37951 ft | 382 kts | 262° |
| 2026-05-08 13:13 | 32.38980 | -101.64076 | 37946 ft | 383 kts | 262° |
| 2026-05-08 13:13 | 32.38503 | -101.70357 | 37953 ft | 383 kts | 262° |
| 2026-05-08 13:14 | 32.38015 | -101.76645 | 37949 ft | 384 kts | 262° |
| 2026-05-08 13:14 | 32.37532 | -101.82909 | 37940 ft | 384 kts | 262° |
| 2026-05-08 13:15 | 32.37044 | -101.89203 | 37939 ft | 384 kts | 262° |
| 2026-05-08 13:15 | 32.36549 | -101.95532 | 37940 ft | 385 kts | 262° |
| 2026-05-08 13:16 | 32.36057 | -102.01844 | 37942 ft | 385 kts | 262° |
| 2026-05-08 13:16 | 32.35562 | -102.08111 | 37939 ft | 385 kts | 262° |
| 2026-05-08 13:17 | 32.35054 | -102.14430 | 37938 ft | 385 kts | 262° |
| 2026-05-08 13:17 | 32.34543 | -102.20759 | 37941 ft | 385 kts | 262° |
| 2026-05-08 13:18 | 32.34040 | -102.27068 | 37946 ft | 385 kts | 262° |
| 2026-05-08 13:18 | 32.33538 | -102.33336 | 37943 ft | 385 kts | 262° |
| 2026-05-08 13:19 | 32.33016 | -102.39655 | 37938 ft | 385 kts | 262° |
| 2026-05-08 13:19 | 32.32487 | -102.45973 | 37950 ft | 385 kts | 262° |
| 2026-05-08 13:20 | 32.31966 | -102.52248 | 37946 ft | 385 kts | 262° |
| 2026-05-08 13:20 | 32.31450 | -102.58550 | 37943 ft | 384 kts | 262° |
| 2026-05-08 13:21 | 32.30931 | -102.64806 | 37928 ft | 384 kts | 262° |
| 2026-05-08 13:21 | 32.30403 | -102.71094 | 37926 ft | 384 kts | 262° |
| 2026-05-08 13:22 | 32.29870 | -102.77379 | 37936 ft | 384 kts | 261° |
| 2026-05-08 13:22 | 32.29337 | -102.83625 | 37938 ft | 383 kts | 261° |
| 2026-05-08 13:23 | 32.28791 | -102.89893 | 37926 ft | 383 kts | 261° |
| 2026-05-08 13:23 | 32.28251 | -102.96159 | 37938 ft | 382 kts | 261° |
| 2026-05-08 13:24 | 32.27713 | -103.02406 | 37921 ft | 382 kts | 261° |
| 2026-05-08 13:24 | 32.27167 | -103.08660 | 37921 ft | 382 kts | 261° |
| 2026-05-08 13:25 | 32.26619 | -103.14874 | 37919 ft | 382 kts | 261° |
| 2026-05-08 13:25 | 32.26070 | -103.21124 | 37935 ft | 382 kts | 261° |
| 2026-05-08 13:26 | 32.25512 | -103.27366 | 37922 ft | 383 kts | 261° |
| 2026-05-08 13:26 | 32.24956 | -103.33639 | 37925 ft | 383 kts | 261° |
| 2026-05-08 13:27 | 32.24394 | -103.39895 | 37921 ft | 383 kts | 261° |
| 2026-05-08 13:27 | 32.23824 | -103.46121 | 37922 ft | 383 kts | 261° |
| 2026-05-08 13:28 | 32.23249 | -103.52393 | 37929 ft | 383 kts | 261° |
| 2026-05-08 13:28 | 32.22679 | -103.58660 | 37926 ft | 384 kts | 261° |
| 2026-05-08 13:29 | 32.22104 | -103.64951 | 37930 ft | 385 kts | 261° |
| 2026-05-08 13:29 | 32.21529 | -103.71203 | 37928 ft | 385 kts | 261° |
| 2026-05-08 13:30 | 32.20948 | -103.77463 | 37928 ft | 385 kts | 260° |
| 2026-05-08 13:30 | 32.20360 | -103.83763 | 37928 ft | 385 kts | 260° |
| 2026-05-08 13:31 | 32.19773 | -103.90050 | 37924 ft | 385 kts | 260° |
| 2026-05-08 13:31 | 32.19186 | -103.96320 | 37918 ft | 387 kts | 260° |
| 2026-05-08 13:32 | 32.18581 | -104.02654 | 37924 ft | 388 kts | 260° |
| 2026-05-08 13:32 | 32.17973 | -104.08981 | 38002 ft | 388 kts | 260° |
| 2026-05-08 13:33 | 32.17368 | -104.15289 | 38022 ft | 388 kts | 260° |
| 2026-05-08 13:33 | 32.16753 | -104.21645 | 38035 ft | 388 kts | 260° |
| 2026-05-08 13:34 | 32.16145 | -104.27955 | 38020 ft | 389 kts | 260° |
| 2026-05-08 13:34 | 32.15536 | -104.34315 | 38003 ft | 390 kts | 260° |
| 2026-05-08 13:35 | 32.14914 | -104.40674 | 37979 ft | 390 kts | 260° |
| 2026-05-08 13:35 | 32.14281 | -104.47016 | 37957 ft | 390 kts | 260° |
| 2026-05-08 13:36 | 32.13650 | -104.53396 | 37932 ft | 391 kts | 259° |
| 2026-05-08 13:36 | 32.13014 | -104.59777 | 37908 ft | 392 kts | 259° |
| 2026-05-08 13:37 | 32.12381 | -104.66146 | 37897 ft | 392 kts | 260° |
| 2026-05-08 13:37 | 32.11738 | -104.72531 | 37896 ft | 391 kts | 259° |
| 2026-05-08 13:38 | 32.11092 | -104.78908 | 37893 ft | 391 kts | 259° |
| 2026-05-08 13:38 | 32.10447 | -104.85260 | 37898 ft | 391 kts | 259° |
| 2026-05-08 13:39 | 32.09797 | -104.91643 | 37898 ft | 392 kts | 259° |
| 2026-05-08 13:39 | 32.09143 | -104.98036 | 37894 ft | 393 kts | 259° |
| 2026-05-08 13:40 | 32.08485 | -105.04413 | 37892 ft | 394 kts | 259° |
| 2026-05-08 13:40 | 32.07817 | -105.10839 | 37908 ft | 395 kts | 259° |
| 2026-05-08 13:41 | 32.07140 | -105.17272 | 37914 ft | 395 kts | 259° |
| 2026-05-08 13:41 | 32.06466 | -105.23719 | 37918 ft | 395 kts | 259° |
| 2026-05-08 13:42 | 32.05792 | -105.30129 | 37924 ft | 395 kts | 259° |
| 2026-05-08 13:42 | 32.05111 | -105.36579 | 37902 ft | 397 kts | 259° |
| 2026-05-08 13:43 | 32.04428 | -105.43032 | 37901 ft | 399 kts | 259° |
| 2026-05-08 13:43 | 32.03851 | -105.48457 | 37902 ft | 399 kts | 259° |
| 2026-05-08 13:44 | 32.03162 | -105.54938 | 37906 ft | 400 kts | 259° |
| 2026-05-08 13:44 | 32.02345 | -105.62521 | 37914 ft | 401 kts | 259° |
| 2026-05-08 13:45 | 32.01749 | -105.67986 | 37905 ft | 402 kts | 259° |
| 2026-05-08 13:45 | 32.01031 | -105.74510 | 37895 ft | 404 kts | 259° |
| 2026-05-08 13:46 | 32.00317 | -105.81096 | 37883 ft | 406 kts | 259° |
| 2026-05-08 13:46 | 31.99598 | -105.87673 | 37892 ft | 407 kts | 259° |
| 2026-05-08 13:47 | 31.98864 | -105.94294 | 37890 ft | 407 kts | 259° |
| 2026-05-08 13:47 | 31.98129 | -106.00918 | 37909 ft | 407 kts | 260° |
| 2026-05-08 13:48 | 31.97391 | -106.07559 | 37906 ft | 409 kts | 260° |
| 2026-05-08 13:48 | 31.96646 | -106.14215 | 37935 ft | 411 kts | 260° |
| 2026-05-08 13:49 | 31.95896 | -106.20855 | 37966 ft | 412 kts | 260° |
| 2026-05-08 13:49 | 31.95235 | -106.27578 | 38003 ft | 415 kts | 266° |
| 2026-05-08 13:50 | 31.95529 | -106.34411 | 38027 ft | 417 kts | 270° |
| 2026-05-08 13:50 | 31.95868 | -106.41243 | 38021 ft | 419 kts | 270° |
| 2026-05-08 13:51 | 31.96190 | -106.48099 | 38000 ft | 421 kts | 271° |
| 2026-05-08 13:51 | 31.96515 | -106.55001 | 38024 ft | 422 kts | 270° |
| 2026-05-08 13:52 | 31.96834 | -106.61936 | 38064 ft | 423 kts | 270° |
| 2026-05-08 13:52 | 31.97152 | -106.68820 | 38085 ft | 423 kts | 270° |
| 2026-05-08 13:53 | 31.97467 | -106.75759 | 38072 ft | 424 kts | 271° |
| 2026-05-08 13:53 | 31.97779 | -106.82675 | 38038 ft | 425 kts | 271° |
| 2026-05-08 13:54 | 31.98094 | -106.89634 | 37904 ft | 425 kts | 271° |
| 2026-05-08 13:54 | 31.98402 | -106.96605 | 37897 ft | 426 kts | 271° |
| 2026-05-08 13:55 | 31.98698 | -107.03531 | 37891 ft | 426 kts | 271° |
| 2026-05-08 13:56 | 31.99148 | -107.14017 | 37856 ft | 428 kts | 272° |
| 2026-05-08 13:56 | 31.99447 | -107.20991 | 37845 ft | 429 kts | 271° |
| 2026-05-08 13:57 | 31.99735 | -107.28019 | 37842 ft | 430 kts | 271° |
| 2026-05-08 13:57 | 32.00032 | -107.35070 | 37854 ft | 430 kts | 271° |
| 2026-05-08 13:58 | 32.00313 | -107.42133 | 37856 ft | 430 kts | 272° |
| 2026-05-08 13:58 | 32.00592 | -107.49140 | 37893 ft | 431 kts | 272° |
| 2026-05-08 13:59 | 32.00876 | -107.56233 | 37925 ft | 432 kts | 272° |
| 2026-05-08 13:59 | 32.01142 | -107.63288 | 37955 ft | 433 kts | 272° |
| 2026-05-08 14:00 | 32.01408 | -107.70375 | 37965 ft | 433 kts | 272° |
| 2026-05-08 14:00 | 32.01682 | -107.77474 | 37964 ft | 433 kts | 272° |
| 2026-05-08 14:01 | 32.01945 | -107.84574 | 37875 ft | 434 kts | 272° |
| 2026-05-08 14:01 | 32.02202 | -107.91681 | 37880 ft | 434 kts | 272° |
| 2026-05-08 14:02 | 32.02459 | -107.98764 | 37879 ft | 434 kts | 272° |
| 2026-05-08 14:02 | 32.02710 | -108.05881 | 37889 ft | 434 kts | 272° |
| 2026-05-08 14:03 | 32.02955 | -108.12987 | 37888 ft | 434 kts | 272° |
| 2026-05-08 14:03 | 32.03200 | -108.20096 | 37894 ft | 434 kts | 272° |
| 2026-05-08 14:04 | 32.03441 | -108.27170 | 37894 ft | 434 kts | 272° |
| 2026-05-08 14:04 | 32.03672 | -108.34288 | 37890 ft | 434 kts | 272° |
| 2026-05-08 14:05 | 32.03899 | -108.41383 | 37895 ft | 434 kts | 272° |
| 2026-05-08 14:05 | 32.04126 | -108.48517 | 37894 ft | 436 kts | 273° |
| 2026-05-08 14:06 | 32.04352 | -108.55675 | 37907 ft | 438 kts | 273° |
| 2026-05-08 14:06 | 32.04572 | -108.62827 | 37933 ft | 439 kts | 273° |
| 2026-05-08 14:07 | 32.04801 | -108.70051 | 37947 ft | 440 kts | 273° |
| 2026-05-08 14:07 | 32.05022 | -108.77278 | 37898 ft | 441 kts | 273° |
| 2026-05-08 14:08 | 32.05228 | -108.84519 | 37888 ft | 442 kts | 274° |
| 2026-05-08 14:08 | 32.05429 | -108.91726 | 37895 ft | 443 kts | 274° |
| 2026-05-08 14:09 | 32.05631 | -108.98998 | 37900 ft | 443 kts | 274° |
| 2026-05-08 14:09 | 32.05831 | -109.06273 | 37906 ft | 443 kts | 274° |
| 2026-05-08 14:10 | 32.06032 | -109.13503 | 37905 ft | 443 kts | 275° |
| 2026-05-08 14:10 | 32.06231 | -109.20797 | 37921 ft | 443 kts | 274° |
| 2026-05-08 14:11 | 32.06419 | -109.28014 | 37931 ft | 443 kts | 275° |
| 2026-05-08 14:11 | 32.06601 | -109.35284 | 37931 ft | 442 kts | 274° |
| 2026-05-08 14:12 | 32.06772 | -109.42505 | 37938 ft | 442 kts | 274° |
| 2026-05-08 14:12 | 32.06937 | -109.49760 | 37925 ft | 442 kts | 275° |
| 2026-05-08 14:13 | 32.07110 | -109.57000 | 37932 ft | 442 kts | 275° |
| 2026-05-08 14:13 | 32.07194 | -109.60618 | 37664 ft | 441 kts | 275° |
| 2026-05-08 14:13 | 32.07278 | -109.64241 | 37394 ft | 441 kts | 275° |
| 2026-05-08 14:13 | 32.07362 | -109.67869 | 37145 ft | 442 kts | 276° |
| 2026-05-08 14:14 | 32.07442 | -109.71496 | 36885 ft | 444 kts | 276° |
| 2026-05-08 14:14 | 32.07520 | -109.75102 | 36635 ft | 445 kts | 276° |
| 2026-05-08 14:14 | 32.07599 | -109.78766 | 36374 ft | 446 kts | 276° |
| 2026-05-08 14:14 | 32.07676 | -109.82440 | 36108 ft | 447 kts | 276° |
| 2026-05-08 14:15 | 32.07754 | -109.86109 | 35711 ft | 449 kts | 276° |
| 2026-05-08 14:15 | 32.07833 | -109.89824 | 34819 ft | 456 kts | 277° |
| 2026-05-08 14:15 | 32.07914 | -109.93585 | 33956 ft | 462 kts | 277° |
| 2026-05-08 14:15 | 32.07994 | -109.97364 | 33002 ft | 467 kts | 277° |
| 2026-05-08 14:16 | 32.08073 | -110.01238 | 31922 ft | 474 kts | 277° |
| 2026-05-08 14:16 | 32.08153 | -110.05153 | 30961 ft | 479 kts | 276° |
| 2026-05-08 14:16 | 32.08226 | -110.09042 | 30416 ft | 473 kts | 276° |
| 2026-05-08 14:16 | 32.08294 | -110.12907 | 29672 ft | 470 kts | 276° |
| 2026-05-08 14:17 | 32.08359 | -110.16743 | 28980 ft | 464 kts | 276° |
| 2026-05-08 14:17 | 32.08422 | -110.20535 | 28320 ft | 458 kts | 276° |
| 2026-05-08 14:17 | 32.08486 | -110.24278 | 27645 ft | 453 kts | 276° |
| 2026-05-08 14:17 | 32.08549 | -110.27935 | 26989 ft | 448 kts | 276° |
| 2026-05-08 14:18 | 32.08614 | -110.31593 | 26340 ft | 443 kts | 276° |
| 2026-05-08 14:18 | 32.08678 | -110.35215 | 25715 ft | 438 kts | 276° |
| 2026-05-08 14:18 | 32.08740 | -110.38756 | 25096 ft | 434 kts | 276° |
| 2026-05-08 14:18 | 32.08801 | -110.42301 | 24482 ft | 429 kts | 276° |
| 2026-05-08 14:19 | 32.08859 | -110.45811 | 23889 ft | 425 kts | 276° |
| 2026-05-08 14:19 | 32.08914 | -110.49288 | 23278 ft | 421 kts | 276° |
| 2026-05-08 14:19 | 32.08970 | -110.52727 | 22717 ft | 414 kts | 276° |
| 2026-05-08 14:19 | 32.09025 | -110.56110 | 22170 ft | 410 kts | 275° |
| 2026-05-08 14:20 | 32.09076 | -110.59418 | 21637 ft | 406 kts | 275° |
| 2026-05-08 14:20 | 32.09124 | -110.62723 | 21125 ft | 401 kts | 275° |
| 2026-05-08 14:20 | 32.09170 | -110.66001 | 20589 ft | 398 kts | 275° |
| 2026-05-08 14:20 | 32.09212 | -110.69241 | 20031 ft | 394 kts | 275° |
| 2026-05-08 14:21 | 32.09254 | -110.72469 | 19477 ft | 391 kts | 275° |
| 2026-05-08 14:21 | 32.09298 | -110.75662 | 18894 ft | 388 kts | 275° |
| 2026-05-08 14:21 | 32.09342 | -110.78841 | 18285 ft | 387 kts | 274° |
| 2026-05-08 14:21 | 32.09389 | -110.82012 | 17618 ft | 383 kts | 275° |
| 2026-05-08 14:22 | 32.09433 | -110.85137 | 17040 ft | 378 kts | 274° |
| 2026-05-08 14:22 | 32.09474 | -110.88232 | 16466 ft | 374 kts | 274° |
| 2026-05-08 14:22 | 32.09514 | -110.91241 | 15918 ft | 370 kts | 274° |
| 2026-05-08 14:22 | 32.09720 | -110.94237 | 15354 ft | 362 kts | 287° |
| 2026-05-08 14:23 | 32.10696 | -110.96907 | 14809 ft | 352 kts | 306° |
| 2026-05-08 14:23 | 32.12078 | -110.99293 | 14258 ft | 350 kts | 309° |
| 2026-05-08 14:23 | 32.13476 | -111.01635 | 13715 ft | 348 kts | 309° |
| 2026-05-08 14:23 | 32.14872 | -111.03962 | 13120 ft | 345 kts | 309° |
| 2026-05-08 14:24 | 32.16242 | -111.06223 | 12497 ft | 340 kts | 309° |
| 2026-05-08 14:24 | 32.17625 | -111.08477 | 11936 ft | 336 kts | 309° |
| 2026-05-08 14:24 | 32.19003 | -111.10701 | 11362 ft | 332 kts | 309° |
| 2026-05-08 14:24 | 32.20368 | -111.12882 | 10824 ft | 328 kts | 309° |
| 2026-05-08 14:25 | 32.21724 | -111.15029 | 10269 ft | 324 kts | 309° |
| 2026-05-08 14:25 | 32.23075 | -111.17144 | 9709 ft | 321 kts | 309° |
| 2026-05-08 14:25 | 32.24405 | -111.19208 | 9141 ft | 317 kts | 309° |
| 2026-05-08 14:25 | 32.25781 | -111.21215 | 8725 ft | 308 kts | 315° |
| 2026-05-08 14:26 | 32.27320 | -111.22933 | 8348 ft | 300 kts | 319° |
| 2026-05-08 14:26 | 32.28848 | -111.24567 | 7973 ft | 293 kts | 319° |
| 2026-05-08 14:26 | 32.30354 | -111.26167 | 7594 ft | 287 kts | 319° |
| 2026-05-08 14:26 | 32.31828 | -111.27727 | 7234 ft | 282 kts | 319° |
| 2026-05-08 14:27 | 32.33263 | -111.29240 | 6875 ft | 277 kts | 319° |
| 2026-05-08 14:27 | 32.34700 | -111.30745 | 6576 ft | 274 kts | 319° |
| 2026-05-08 14:27 | 32.36121 | -111.32225 | 6212 ft | 270 kts | 319° |
| 2026-05-08 14:27 | 32.37521 | -111.33664 | 6003 ft | 260 kts | 319° |
| 2026-05-08 14:28 | 32.38841 | -111.35016 | 5995 ft | 243 kts | 319° |
| 2026-05-08 14:28 | 32.40081 | -111.36282 | 5996 ft | 227 kts | 319° |
| 2026-05-08 14:28 | 32.40856 | -111.37074 | 5998 ft | 216 kts | 319° |
| 2026-05-08 14:28 | 32.41951 | -111.38191 | 6008 ft | 198 kts | 319° |
| 2026-05-08 14:29 | 32.42998 | -111.39256 | 6015 ft | 201 kts | 319° |
| 2026-05-08 14:29 | 32.44413 | -111.40698 | 6010 ft | 203 kts | 319° |
| 2026-05-08 14:29 | 32.45134 | -111.41435 | 6010 ft | 203 kts | 319° |
| 2026-05-08 14:29 | 32.46204 | -111.42531 | 6010 ft | 203 kts | 319° |
| 2026-05-08 14:30 | 32.47262 | -111.43608 | 6002 ft | 202 kts | 319° |
| 2026-05-08 14:30 | 32.48328 | -111.44692 | 5997 ft | 202 kts | 319° |
| 2026-05-08 14:30 | 32.49391 | -111.45780 | 5934 ft | 203 kts | 319° |
| 2026-05-08 14:30 | 32.50564 | -111.46645 | 5682 ft | 197 kts | 340° |
| 2026-05-08 14:31 | 32.51910 | -111.46733 | 5401 ft | 192 kts | 8° |
| 2026-05-08 14:31 | 32.53076 | -111.46040 | 5107 ft | 188 kts | 37° |
| 2026-05-08 14:31 | 32.53946 | -111.44936 | 4844 ft | 181 kts | 43° |
| 2026-05-08 14:32 | 32.55635 | -111.42760 | 4341 ft | 173 kts | 44° |
| 2026-05-08 14:32 | 32.56388 | -111.41783 | 4113 ft | 151 kts | 44° |
| 2026-05-08 14:32 | 32.56986 | -111.40829 | 3867 ft | 146 kts | 70° |
| 2026-05-08 14:32 | 32.56913 | -111.39680 | 3669 ft | 141 kts | 120° |
| 2026-05-08 14:33 | 32.56252 | -111.38862 | 3557 ft | 137 kts | 141° |
| 2026-05-08 14:33 | 32.55589 | -111.38047 | 3315 ft | 136 kts | 134° |
| 2026-05-08 14:33 | 32.54970 | -111.37218 | 3086 ft | 132 kts | 136° |
| 2026-05-08 14:33 | 32.54313 | -111.36474 | 2873 ft | 129 kts | 139° |
| 2026-05-08 14:34 | 32.53677 | -111.35741 | 2573 ft | 125 kts | 134° |
| 2026-05-08 14:34 | 32.53071 | -111.35004 | 2343 ft | 124 kts | 135° |
| 2026-05-08 14:34 | 32.52463 | -111.34283 | 2146 ft | 123 kts | 136° |
| 2026-05-08 14:34 | 32.51869 | -111.33580 | 1972 ft | 122 kts | 134° |
| 2026-05-08 14:35 | 32.51296 | -111.32900 | 1886 ft | 103 kts | 136° |
| 2026-05-08 14:35 | 32.50978 | -111.32528 | 1883 ft | 30 kts | 135° |
| 2026-05-08 14:35 | 32.50840 | -111.32366 | 1882 ft | 27 kts | 135° |
| 2026-05-08 14:35 | 32.50712 | -111.32214 | 1898 ft | 25 kts | 135° |
| 2026-05-08 14:36 | 32.50588 | -111.32066 | 1899 ft | 25 kts | 135° |
| 2026-05-08 14:36 | 32.50471 | -111.31929 | 1887 ft | 22 kts | 135° |
| 2026-05-08 14:36 | 32.50385 | -111.31830 | 1896 ft | 16 kts | 136° |
| 2026-05-08 14:36 | 32.50408 | -111.31733 | 1899 ft | 15 kts | 44° |
| 2026-05-08 14:37 | 32.50501 | -111.31722 | 1894 ft | 16 kts | 322° |
| 2026-05-08 14:37 | 32.50593 | -111.31823 | 1897 ft | 20 kts | 315° |
| 2026-05-08 14:37 | 32.50698 | -111.31948 | 1902 ft | 24 kts | 314° |
| 2026-05-08 14:37 | 32.50819 | -111.32089 | 1891 ft | 22 kts | 317° |
| 2026-05-08 14:38 | 32.50924 | -111.32180 | 1889 ft | 13 kts | 7° |
| 2026-05-08 14:38 | 32.50958 | -111.32138 | 1894 ft | 7 kts | 46° |
| 2026-05-08 14:38 | 32.50986 | -111.32105 | 1895 ft | 0 kts | 44° |